Time;durP1;ratioP1;P1;durP2;ratioP2;P2;SDS_P1;SDS_P2;PMS_P1;PMS_P2;Temp;Humidity;BMP_temperature;BMP_pressure;BME280_temperature;BME280_humidity;BME280_pressure;Samples;Min_cycle;Max_cycle;Signal;HPM_P1;HPM_P2
2022/03/13 00:00:46;;;;;;;27.63;18.03;;;3.70;99.90;;;;;;5012599;28;20175;-29
2022/03/13 00:03:14;;;;;;;25.77;16.70;;;3.70;99.90;;;;;;4995815;28;20226;-31
2022/03/13 00:05:42;;;;;;;29.43;17.87;;;3.60;99.90;;;;;;4996025;28;20306;-29
2022/03/13 00:08:37;;;;;;;28.13;17.67;;;3.60;99.90;;;;;;5012487;28;20262;-29
2022/03/13 00:11:07;;;;;;;34.47;17.40;;;3.50;99.90;;;;;;4992753;28;20261;-30
2022/03/13 00:13:48;;;;;;;29.60;18.47;;;3.40;99.90;;;;;;4976639;28;20187;-30
2022/03/13 00:16:15;;;;;;;27.53;18.13;;;3.30;99.90;;;;;;4993071;28;20179;-28
2022/03/13 00:18:46;;;;;;;29.10;18.73;;;3.10;99.90;;;;;;4994051;28;20265;-30
2022/03/13 00:21:15;;;;;;;31.67;18.40;;;3.10;99.90;;;;;;4976597;28;20211;-29
2022/03/13 00:23:42;;;;;;;28.90;17.70;;;3.00;99.90;;;;;;4992696;28;20182;-30
2022/03/13 00:26:09;;;;;;;27.50;18.67;;;3.00;99.90;;;;;;4976507;28;20667;-30
2022/03/13 00:28:39;;;;;;;31.70;18.43;;;3.00;99.90;;;;;;4975794;28;20270;-29
2022/03/13 00:31:05;;;;;;;29.57;19.03;;;3.00;99.90;;;;;;4992501;28;20173;-30
2022/03/13 00:33:31;;;;;;;29.53;19.03;;;3.00;99.90;;;;;;4976636;28;20184;-30
2022/03/13 00:35:57;;;;;;;30.77;19.17;;;2.90;99.90;;;;;;4993961;28;20234;-29
2022/03/13 00:38:25;;;;;;;31.80;20.97;;;2.90;99.90;;;;;;4992800;28;20176;-30
2022/03/13 00:40:55;;;;;;;30.00;20.00;;;3.00;99.90;;;;;;5004121;28;20189;-29
2022/03/13 00:43:23;;;;;;;31.07;19.93;;;3.00;99.90;;;;;;5012134;28;20186;-30
2022/03/13 00:45:49;;;;;;;34.17;19.63;;;3.10;99.90;;;;;;4995477;28;20333;-30
2022/03/13 00:48:16;;;;;;;28.63;19.73;;;3.20;99.90;;;;;;4995613;28;20228;-30
2022/03/13 00:50:43;;;;;;;32.60;19.13;;;3.10;99.90;;;;;;4995471;28;20348;-30
2022/03/13 00:53:08;;;;;;;28.17;18.27;;;3.00;99.90;;;;;;5011534;28;20206;-29
2022/03/13 00:55:34;;;;;;;26.47;18.30;;;3.00;99.90;;;;;;5011704;28;20178;-30
2022/03/13 00:58:01;;;;;;;30.97;17.43;;;2.90;99.90;;;;;;5011637;28;20252;-30
2022/03/13 01:00:27;;;;;;;29.27;18.03;;;2.80;99.90;;;;;;4995402;28;20183;-30
2022/03/13 01:02:53;;;;;;;29.10;18.10;;;2.70;99.90;;;;;;4995416;28;20269;-29
2022/03/13 01:05:26;;;;;;;26.20;16.63;;;2.60;99.90;;;;;;4995223;28;20298;-29
2022/03/13 01:07:54;;;;;;;31.37;17.57;;;2.50;99.90;;;;;;5011424;28;20194;-30
2022/03/13 01:10:20;;;;;;;27.97;17.10;;;2.40;99.90;;;;;;5012454;28;20198;-29
2022/03/13 01:12:48;;;;;;;27.77;17.87;;;2.50;99.90;;;;;;5011297;28;20215;-30
2022/03/13 01:15:15;;;;;;;29.17;18.43;;;2.40;99.90;;;;;;5011438;28;20182;-29
2022/03/13 01:17:42;;;;;;;31.10;17.13;;;2.40;99.90;;;;;;5012719;28;20181;-30
2022/03/13 01:20:22;;;;;;;29.13;17.77;;;2.40;99.90;;;;;;5012310;28;20173;-30
2022/03/13 01:22:49;;;;;;;29.00;17.97;;;2.40;99.90;;;;;;4994993;28;20381;-30
2022/03/13 01:25:15;;;;;;;25.67;16.77;;;2.30;99.90;;;;;;4994794;28;20693;-30
2022/03/13 01:27:45;;;;;;;26.80;17.60;;;2.20;99.90;;;;;;5012934;28;20175;-29
2022/03/13 01:30:14;;;;;;;26.97;17.47;;;2.10;99.90;;;;;;5011097;28;20193;-29
2022/03/13 01:32:41;;;;;;;30.53;17.53;;;2.00;99.90;;;;;;4994678;28;20339;-30
2022/03/13 01:35:07;;;;;;;28.27;17.03;;;1.90;99.90;;;;;;5011004;28;20254;-30
2022/03/13 01:37:36;;;;;;;27.37;16.80;;;1.80;99.90;;;;;;5012375;28;20191;-29
2022/03/13 01:40:09;;;;;;;29.00;15.97;;;1.80;99.90;;;;;;4993609;28;20202;-28
2022/03/13 01:42:40;;;;;;;27.93;16.13;;;1.70;99.90;;;;;;4994243;28;20286;-29
2022/03/13 01:45:10;;;;;;;23.47;15.87;;;1.80;99.90;;;;;;4994544;28;20221;-30
2022/03/13 01:47:36;;;;;;;27.33;16.30;;;1.80;99.90;;;;;;4994326;28;20250;-31
2022/03/13 01:50:03;;;;;;;22.23;15.07;;;1.90;99.90;;;;;;4994496;28;20658;-30
2022/03/13 01:52:29;;;;;;;24.43;15.93;;;2.00;99.90;;;;;;4994467;28;20202;-30
2022/03/13 01:54:57;;;;;;;25.23;16.10;;;2.00;99.90;;;;;;4994360;28;20188;-30
2022/03/13 01:57:23;;;;;;;23.47;15.07;;;2.00;99.90;;;;;;4994175;28;20324;-30
2022/03/13 01:59:57;;;;;;;25.03;16.00;;;2.10;99.90;;;;;;5010272;28;20181;-29
2022/03/13 02:02:25;;;;;;;26.33;15.67;;;2.10;99.90;;;;;;4994081;28;20214;-30
2022/03/13 02:04:54;;;;;;;24.93;15.50;;;2.10;99.90;;;;;;4994181;28;20213;-30
2022/03/13 02:07:25;;;;;;;26.70;15.70;;;2.20;99.90;;;;;;4994233;28;20237;-28
2022/03/13 02:09:51;;;;;;;25.60;16.23;;;2.00;99.90;;;;;;5010158;28;20173;-29
2022/03/13 02:12:19;;;;;;;23.70;15.63;;;2.00;99.90;;;;;;5010560;28;20270;-29
2022/03/13 02:14:45;;;;;;;23.50;16.03;;;1.90;99.90;;;;;;4994232;28;20188;-29
2022/03/13 02:17:10;;;;;;;28.07;16.67;;;1.90;99.90;;;;;;4994212;28;20193;-30
2022/03/13 02:19:37;;;;;;;27.43;16.60;;;1.90;99.90;;;;;;4993822;28;20206;-29
2022/03/13 02:22:03;;;;;;;31.80;16.87;;;1.90;99.90;;;;;;4994132;28;20557;-29
2022/03/13 02:24:29;;;;;;;30.33;17.77;;;1.90;99.90;;;;;;4993900;28;20241;-28
2022/03/13 02:27:00;;;;;;;31.47;17.87;;;1.70;99.90;;;;;;5010023;28;20249;-28
2022/03/13 02:29:27;;;;;;;28.87;17.13;;;1.40;99.90;;;;;;5011295;28;20182;-30
2022/03/13 02:31:53;;;;;;;29.13;18.37;;;1.20;99.90;;;;;;5010032;28;20198;-29
2022/03/13 02:34:21;;;;;;;25.70;16.70;;;1.00;99.90;;;;;;5010144;28;20225;-28
2022/03/13 02:36:47;;;;;;;25.30;16.50;;;1.10;99.90;;;;;;5010272;28;20195;-29
2022/03/13 02:39:13;;;;;;;25.07;16.37;;;1.20;99.90;;;;;;5010181;28;20190;-30
2022/03/13 02:41:42;;;;;;;28.70;16.73;;;1.40;99.90;;;;;;5009824;28;20210;-29
2022/03/13 02:44:10;;;;;;;26.43;17.27;;;1.50;99.90;;;;;;5009982;28;20300;-28
2022/03/13 02:46:45;;;;;;;29.43;16.90;;;1.60;99.90;;;;;;4993739;28;20183;-28
2022/03/13 02:49:15;;;;;;;28.27;18.00;;;1.60;99.90;;;;;;4993524;28;20211;-28
2022/03/13 02:51:42;;;;;;;27.43;17.10;;;1.70;99.90;;;;;;5010471;28;20199;-28
2022/03/13 02:54:11;;;;;;;28.50;17.93;;;1.70;99.90;;;;;;5013611;28;20195;-28
2022/03/13 02:56:37;;;;;;;30.20;17.90;;;1.80;99.90;;;;;;5014164;28;20204;-29
2022/03/13 02:59:03;;;;;;;29.77;17.60;;;1.70;99.90;;;;;;4997488;28;20187;-30
2022/03/13 03:01:29;;;;;;;28.07;17.70;;;1.70;99.90;;;;;;4997755;28;20701;-28
2022/03/13 03:04:00;;;;;;;27.63;17.73;;;1.60;99.90;;;;;;4997630;28;20211;-29
2022/03/13 03:06:29;;;;;;;28.93;17.20;;;1.60;99.90;;;;;;4997417;28;20183;-30
2022/03/13 03:08:55;;;;;;;27.07;17.43;;;1.60;99.90;;;;;;5013637;28;20170;-28
2022/03/13 03:11:22;;;;;;;27.70;17.13;;;1.60;99.90;;;;;;5013507;28;20703;-30
2022/03/13 03:13:49;;;;;;;27.97;17.63;;;1.50;99.90;;;;;;4997537;28;20179;-29
2022/03/13 03:16:15;;;;;;;28.53;16.97;;;1.50;99.90;;;;;;4997149;28;20186;-28
2022/03/13 03:18:40;;;;;;;30.70;19.07;;;1.50;99.90;;;;;;5013699;28;20181;-29
2022/03/13 03:21:07;;;;;;;33.07;18.70;;;1.50;99.90;;;;;;5013143;28;20631;-28
2022/03/13 03:23:33;;;;;;;33.90;20.60;;;1.50;99.90;;;;;;4997256;28;20183;-28
2022/03/13 03:26:00;;;;;;;30.57;18.63;;;1.50;99.90;;;;;;4997158;28;20221;-30
2022/03/13 03:28:25;;;;;;;32.17;19.37;;;1.50;99.90;;;;;;5013326;28;20200;-28
2022/03/13 03:30:51;;;;;;;31.63;19.63;;;1.50;99.90;;;;;;5013493;28;20660;-28
2022/03/13 03:33:17;;;;;;;40.10;21.10;;;1.50;99.90;;;;;;4997226;28;20301;-28
2022/03/13 03:35:43;;;;;;;33.47;18.07;;;1.50;99.90;;;;;;4996720;28;20268;-28
2022/03/13 03:38:11;;;;;;;29.80;17.87;;;1.50;99.90;;;;;;5013446;28;20659;-31
2022/03/13 03:40:37;;;;;;;31.77;18.03;;;1.50;99.90;;;;;;4996856;28;20289;-29
2022/03/13 03:43:04;;;;;;;28.03;17.00;;;1.40;99.90;;;;;;5013101;28;20202;-29
2022/03/13 03:45:31;;;;;;;26.43;16.00;;;1.30;99.90;;;;;;4998020;28;20237;-28
2022/03/13 03:47:59;;;;;;;25.47;16.40;;;1.20;99.90;;;;;;4999044;28;20184;-30
2022/03/13 03:50:25;;;;;;;25.60;15.53;;;1.00;99.90;;;;;;4998481;28;20177;-28
2022/03/13 03:52:54;;;;;;;29.20;18.10;;;1.00;99.90;;;;;;5013421;28;20578;-30
2022/03/13 03:55:22;;;;;;;27.77;16.83;;;1.00;99.90;;;;;;5014508;28;20206;-29
2022/03/13 03:57:48;;;;;;;25.40;16.70;;;1.00;99.90;;;;;;4996482;28;20286;-30
2022/03/13 04:00:14;;;;;;;29.37;16.37;;;0.90;99.90;;;;;;4996351;28;20284;-28
2022/03/13 04:02:41;;;;;;;28.33;16.97;;;1.00;99.90;;;;;;5012697;28;20219;-30
2022/03/13 04:05:09;;;;;;;27.17;17.43;;;1.00;99.90;;;;;;5011635;28;20210;-29
2022/03/13 04:07:36;;;;;;;22.53;15.80;;;1.10;99.90;;;;;;5012643;28;20182;-29
2022/03/13 04:10:03;;;;;;;26.03;16.10;;;1.00;99.90;;;;;;4995929;28;20199;-29
2022/03/13 04:12:30;;;;;;;26.87;17.00;;;0.90;99.90;;;;;;5012529;28;20211;-29
2022/03/13 04:14:56;;;;;;;28.27;16.40;;;0.90;99.90;;;;;;5012776;28;20189;-29
2022/03/13 04:17:22;;;;;;;23.63;15.50;;;0.90;99.90;;;;;;5012453;28;20201;-28
2022/03/13 04:19:48;;;;;;;27.33;15.87;;;1.00;99.90;;;;;;4996127;28;20225;-28
2022/03/13 04:22:15;;;;;;;28.07;16.10;;;1.00;99.90;;;;;;5012353;28;20277;-29
2022/03/13 04:24:41;;;;;;;28.00;16.33;;;1.00;99.90;;;;;;4996132;28;20213;-28
2022/03/13 04:27:07;;;;;;;33.80;17.67;;;1.20;99.90;;;;;;5013800;28;20174;-30
2022/03/13 04:29:34;;;;;;;28.53;16.47;;;1.20;99.90;;;;;;5013617;28;20206;-28
2022/03/13 04:32:00;;;;;;;24.90;15.17;;;1.10;99.90;;;;;;5012187;28;20212;-29
2022/03/13 04:34:26;;;;;;;24.90;15.40;;;1.10;99.90;;;;;;4996134;28;20194;-30
2022/03/13 04:36:51;;;;;;;25.33;15.77;;;1.10;99.90;;;;;;5012360;28;20181;-30
2022/03/13 04:39:17;;;;;;;28.03;15.47;;;1.10;99.90;;;;;;5012214;28;20196;-30
2022/03/13 04:41:44;;;;;;;28.30;16.23;;;1.10;99.90;;;;;;5012024;28;20255;-28
2022/03/13 04:44:13;;;;;;;26.33;16.27;;;1.00;99.90;;;;;;5012055;28;20205;-29
2022/03/13 04:46:40;;;;;;;28.80;17.27;;;0.90;99.90;;;;;;5011563;28;20273;-28
2022/03/13 04:49:06;;;;;;;25.43;16.00;;;1.00;99.90;;;;;;4995351;28;20192;-30
2022/03/13 04:51:32;;;;;;;25.87;15.80;;;0.90;99.90;;;;;;5011833;28;20205;-29
2022/03/13 04:53:57;;;;;;;25.97;16.00;;;0.80;99.90;;;;;;5011869;28;20210;-29
2022/03/13 04:56:23;;;;;;;25.23;16.03;;;0.70;99.90;;;;;;5011751;28;20657;-29
2022/03/13 04:58:50;;;;;;;24.63;15.60;;;0.70;99.90;;;;;;5011531;28;20189;-30
2022/03/13 05:01:19;;;;;;;27.63;16.63;;;0.60;99.90;;;;;;4994311;28;20219;-28
2022/03/13 05:03:45;;;;;;;29.33;17.00;;;0.60;99.90;;;;;;4995045;28;20274;-29
2022/03/13 05:06:12;;;;;;;29.37;16.50;;;0.50;99.90;;;;;;5011527;28;20192;-28
2022/03/13 05:08:40;;;;;;;24.30;16.17;;;0.40;99.90;;;;;;5011496;28;20243;-28
2022/03/13 05:11:07;;;;;;;29.70;16.93;;;0.30;99.90;;;;;;5010871;28;20183;-28
2022/03/13 05:13:34;;;;;;;29.87;16.93;;;0.20;99.90;;;;;;4995538;28;20180;-31
2022/03/13 05:16:00;;;;;;;30.57;17.03;;;0.20;99.90;;;;;;4994846;28;20197;-30
2022/03/13 05:18:26;;;;;;;27.10;16.57;;;0.20;99.90;;;;;;4995044;28;20188;-30
2022/03/13 05:20:52;;;;;;;29.60;16.80;;;0.20;99.90;;;;;;4994777;28;20193;-30
2022/03/13 05:23:18;;;;;;;26.77;16.83;;;0.20;99.90;;;;;;5011259;28;20201;-30
2022/03/13 05:25:43;;;;;;;27.20;16.33;;;0.20;99.90;;;;;;5011149;28;20223;-30
2022/03/13 05:28:09;;;;;;;27.07;15.67;;;0.20;99.90;;;;;;5011043;28;20226;-30
2022/03/13 05:30:36;;;;;;;30.80;16.93;;;0.20;99.90;;;;;;4994662;28;20208;-30
2022/03/13 05:33:04;;;;;;;29.70;17.97;;;0.20;99.90;;;;;;4994706;28;20291;-31
2022/03/13 05:35:30;;;;;;;27.10;16.33;;;0.20;99.90;;;;;;4994545;28;20195;-30
2022/03/13 05:37:56;;;;;;;27.03;16.43;;;0.00;99.90;;;;;;4994664;28;20190;-30
2022/03/13 05:40:23;;;;;;;27.27;16.73;;;-0.10;99.90;;;;;;4987387;28;20199;-30
2022/03/13 05:42:58;;;;;;;28.27;16.80;;;-0.10;99.90;;;;;;4990994;28;20323;-30
2022/03/13 05:45:26;;;;;;;30.70;16.53;;;-0.10;99.90;;;;;;4991373;28;20313;-29
2022/03/13 05:47:57;;;;;;;31.50;16.53;;;-0.10;99.90;;;;;;4975206;28;20178;-30
2022/03/13 05:50:25;;;;;;;32.47;18.33;;;-0.10;99.90;;;;;;4974863;28;20180;-30
2022/03/13 05:52:55;;;;;;;26.87;17.20;;;-0.10;99.90;;;;;;4974934;28;20288;-29
2022/03/13 05:55:28;;;;;;;29.20;17.77;;;-0.10;99.90;;;;;;4990902;28;20191;-29
2022/03/13 05:57:55;;;;;;;31.00;17.97;;;-0.10;99.90;;;;;;4974624;28;20207;-30
2022/03/13 06:00:25;;;;;;;33.23;19.13;;;0.00;99.90;;;;;;4990874;28;20228;-29
2022/03/13 06:02:51;;;;;;;31.33;18.13;;;0.00;99.90;;;;;;5007117;28;20212;-30
2022/03/13 06:05:19;;;;;;;27.97;17.40;;;0.00;99.90;;;;;;4974549;28;20196;-30
2022/03/13 06:07:46;;;;;;;29.07;18.07;;;0.10;99.90;;;;;;4974483;28;20185;-30
2022/03/13 06:10:12;;;;;;;29.43;17.53;;;0.20;99.90;;;;;;4974312;28;20192;-30
2022/03/13 06:12:38;;;;;;;32.53;18.97;;;0.20;99.90;;;;;;4974608;28;20227;-30
2022/03/13 06:15:06;;;;;;;31.40;19.47;;;0.20;99.90;;;;;;4974749;28;20188;-30
2022/03/13 06:17:36;;;;;;;31.00;18.13;;;0.30;99.90;;;;;;4990633;28;20244;-31
2022/03/13 06:20:04;;;;;;;32.23;18.63;;;0.40;99.90;;;;;;4990255;28;20191;-30
2022/03/13 06:22:29;;;;;;;30.80;17.77;;;0.40;99.90;;;;;;4990382;28;20212;-30
2022/03/13 06:24:55;;;;;;;30.57;17.97;;;0.50;99.90;;;;;;4990471;28;20268;-30
2022/03/13 06:27:22;;;;;;;30.53;17.93;;;0.50;99.90;;;;;;4973652;28;20466;-30
2022/03/13 06:29:48;;;;;;;30.30;18.90;;;0.60;99.90;;;;;;4990529;28;20241;-30
2022/03/13 06:32:14;;;;;;;29.27;18.60;;;0.70;99.90;;;;;;4993448;28;20203;-31
2022/03/13 06:34:41;;;;;;;28.60;17.83;;;0.80;99.90;;;;;;4984570;28;20689;-30
2022/03/13 06:37:08;;;;;;;32.67;19.63;;;0.90;99.90;;;;;;4981012;28;20215;-30
2022/03/13 06:39:34;;;;;;;33.30;20.43;;;1.00;99.90;;;;;;4990417;28;20663;-30
2022/03/13 06:42:00;;;;;;;40.57;23.33;;;1.10;99.90;;;;;;5003369;28;20205;-30
2022/03/13 06:44:26;;;;;;;34.73;21.27;;;1.20;99.90;;;;;;4982279;28;20213;-30
2022/03/13 06:46:52;;;;;;;35.77;22.23;;;1.20;99.90;;;;;;4999513;28;20186;-31
2022/03/13 06:49:18;;;;;;;34.93;22.07;;;1.30;99.90;;;;;;4980020;28;20272;-29
2022/03/13 06:51:44;;;;;;;37.70;21.10;;;1.40;99.90;;;;;;4981782;28;20302;-30
2022/03/13 06:54:10;;;;;;;35.70;21.83;;;1.50;99.90;;;;;;4991336;28;20281;-30
2022/03/13 06:56:38;;;;;;;33.93;21.17;;;1.60;99.90;;;;;;4993186;28;20353;-30
2022/03/13 06:59:05;;;;;;;35.10;21.43;;;1.70;99.90;;;;;;5009993;28;20185;-31
2022/03/13 07:01:33;;;;;;;36.13;21.30;;;1.80;99.90;;;;;;5008663;28;20205;-30
2022/03/13 07:03:59;;;;;;;30.17;18.83;;;1.90;99.90;;;;;;5009318;28;20193;-30
2022/03/13 07:06:25;;;;;;;32.53;20.63;;;2.00;99.90;;;;;;4993645;28;20186;-30
2022/03/13 07:08:51;;;;;;;34.57;20.63;;;2.00;99.90;;;;;;4992510;28;20206;-30
2022/03/13 07:11:17;;;;;;;31.53;19.43;;;2.10;99.90;;;;;;4993078;28;20210;-30
2022/03/13 07:13:46;;;;;;;31.40;19.07;;;2.20;99.90;;;;;;5009585;28;20240;-30
2022/03/13 07:16:16;;;;;;;29.50;19.03;;;2.30;99.90;;;;;;4993073;28;20243;-30
2022/03/13 07:18:45;;;;;;;30.83;18.70;;;2.40;99.90;;;;;;4992976;28;20180;-29
2022/03/13 07:21:12;;;;;;;31.97;18.60;;;2.50;99.90;;;;;;5009355;28;20182;-30
2022/03/13 07:23:39;;;;;;;28.70;18.87;;;2.60;99.90;;;;;;5009496;28;20183;-30
2022/03/13 07:26:05;;;;;;;27.10;17.43;;;2.70;99.90;;;;;;5009754;28;20274;-30
2022/03/13 07:28:32;;;;;;;26.23;17.20;;;2.80;99.90;;;;;;4993021;28;20183;-31
2022/03/13 07:30:58;;;;;;;27.23;17.60;;;2.90;99.90;;;;;;5009098;28;20590;-30
2022/03/13 07:33:24;;;;;;;29.17;17.83;;;3.10;99.90;;;;;;4993184;28;20209;-30
2022/03/13 07:35:50;;;;;;;28.43;17.47;;;3.20;99.90;;;;;;4992963;28;20211;-30
2022/03/13 07:38:16;;;;;;;29.97;20.07;;;3.30;99.90;;;;;;5010876;28;20441;-30
2022/03/13 07:40:43;;;;;;;32.90;21.70;;;3.50;99.90;;;;;;4996734;28;20199;-31
2022/03/13 07:43:12;;;;;;;29.27;18.67;;;3.60;99.90;;;;;;5013087;28;20296;-31
2022/03/13 07:45:37;;;;;;;28.20;18.80;;;3.70;99.90;;;;;;4996301;28;20357;-30
2022/03/13 07:48:04;;;;;;;28.17;18.00;;;3.80;99.90;;;;;;4996876;28;20265;-30
2022/03/13 07:50:30;;;;;;;27.47;18.07;;;4.00;99.90;;;;;;4994535;28;20641;-30
2022/03/13 07:52:56;;;;;;;28.67;18.33;;;4.00;99.90;;;;;;4988210;28;20191;-30
2022/03/13 07:55:22;;;;;;;29.20;18.47;;;4.10;99.90;;;;;;4996696;28;20180;-30
2022/03/13 07:57:49;;;;;;;32.73;20.57;;;4.20;99.90;;;;;;5012985;28;20214;-31
2022/03/13 08:00:17;;;;;;;26.90;19.03;;;4.30;99.90;;;;;;5012772;28;20180;-30
2022/03/13 08:02:46;;;;;;;34.70;19.77;;;4.40;99.90;;;;;;4996281;28;20209;-30
2022/03/13 08:05:16;;;;;;;27.60;19.33;;;4.50;99.90;;;;;;4995731;28;20202;-30
2022/03/13 08:07:43;;;;;;;29.57;19.43;;;4.70;99.90;;;;;;4987335;28;20309;-30
2022/03/13 08:10:10;;;;;;;29.23;19.57;;;4.80;99.90;;;;;;5003353;28;20171;-31
2022/03/13 08:12:38;;;;;;;29.17;18.93;;;4.90;99.90;;;;;;5000831;28;20211;-31
2022/03/13 08:15:07;;;;;;;27.87;19.00;;;5.10;99.90;;;;;;4976883;28;20227;-30
2022/03/13 08:17:36;;;;;;;28.10;18.53;;;5.10;99.90;;;;;;4976815;28;20180;-30
2022/03/13 08:20:06;;;;;;;30.87;18.97;;;5.20;99.90;;;;;;4992815;28;20191;-30
2022/03/13 08:22:32;;;;;;;29.67;18.90;;;5.30;99.90;;;;;;4992832;28;20207;-30
2022/03/13 08:24:58;;;;;;;27.73;18.47;;;5.50;99.90;;;;;;4992945;28;20251;-30
2022/03/13 08:27:25;;;;;;;29.77;17.90;;;5.70;99.90;;;;;;4992748;28;20187;-32
2022/03/13 08:29:51;;;;;;;26.60;17.73;;;5.80;99.90;;;;;;4992729;28;20176;-30
2022/03/13 08:32:18;;;;;;;26.77;18.50;;;6.00;99.90;;;;;;4976432;28;20196;-30
2022/03/13 08:34:45;;;;;;;25.73;18.73;;;6.20;99.90;;;;;;4999593;28;20198;-30
2022/03/13 08:37:15;;;;;;;32.27;18.87;;;6.30;99.90;;;;;;4995073;28;20235;-30
2022/03/13 08:39:41;;;;;;;29.37;19.10;;;6.40;99.90;;;;;;4985307;28;20183;-31
2022/03/13 08:42:08;;;;;;;28.10;17.37;;;6.50;99.90;;;;;;4985395;28;20295;-32
2022/03/13 08:44:34;;;;;;;24.67;16.83;;;6.60;99.90;;;;;;4986381;28;20225;-30
2022/03/13 08:47:00;;;;;;;26.60;17.97;;;6.70;99.90;;;;;;4984395;28;20181;-30
2022/03/13 08:49:26;;;;;;;24.87;17.00;;;6.70;99.90;;;;;;5001388;28;20185;-31
2022/03/13 08:51:51;;;;;;;27.90;19.20;;;6.90;99.90;;;;;;4986026;28;20210;-31
2022/03/13 08:54:20;;;;;;;24.10;16.87;;;7.00;99.90;;;;;;5001595;28;20192;-31
2022/03/13 08:56:48;;;;;;;25.17;17.20;;;7.10;99.90;;;;;;5003311;28;20198;-31
2022/03/13 08:59:16;;;;;;;25.63;16.87;;;7.20;99.90;;;;;;4999756;28;20193;-30
2022/03/13 09:01:44;;;;;;;25.63;16.73;;;7.30;99.90;;;;;;5005880;28;20302;-31
2022/03/13 09:04:10;;;;;;;25.77;17.70;;;7.60;99.90;;;;;;5005508;28;22129;-31
2022/03/13 09:06:39;;;;;;;24.67;17.23;;;7.70;99.90;;;;;;5005606;28;20260;-32
2022/03/13 09:09:09;;;;;;;25.13;16.33;;;7.90;99.90;;;;;;4996724;28;20230;-32
2022/03/13 09:11:36;;;;;;;22.57;16.03;;;8.00;99.90;;;;;;5003294;28;20218;-32
2022/03/13 09:14:04;;;;;;;22.63;16.27;;;8.10;99.90;;;;;;5002221;28;20281;-32
2022/03/13 09:16:35;;;;;;;24.70;16.80;;;8.20;99.90;;;;;;4999644;28;20183;-31
2022/03/13 09:19:02;;;;;;;24.53;16.30;;;8.40;99.90;;;;;;5010817;28;20179;-32
2022/03/13 09:21:30;;;;;;;28.70;17.70;;;8.50;99.90;;;;;;5010716;28;20284;-31
2022/03/13 09:23:55;;;;;;;25.07;17.03;;;8.50;99.90;;;;;;5010744;28;20179;-32
2022/03/13 09:26:21;;;;;;;22.93;16.67;;;8.60;99.90;;;;;;5012316;28;20186;-32
2022/03/13 09:28:52;;;;;;;24.27;17.37;;;8.70;99.90;;;;;;5013150;28;20199;-31
2022/03/13 09:31:19;;;;;;;24.97;16.97;;;8.80;99.90;;;;;;5011657;28;20195;-32
2022/03/13 09:33:45;;;;;;;23.67;16.50;;;8.90;99.90;;;;;;5012190;28;20229;-32
2022/03/13 09:36:11;;;;;;;21.93;16.27;;;9.20;99.90;;;;;;5010510;28;20262;-32
2022/03/13 09:38:36;;;;;;;21.77;15.63;;;9.30;99.90;;;;;;5010788;28;20254;-32
2022/03/13 09:41:02;;;;;;;23.83;16.53;;;9.50;99.90;;;;;;5010375;28;20234;-32
2022/03/13 09:43:28;;;;;;;23.83;15.73;;;9.70;99.90;;;;;;5012259;28;20183;-32
2022/03/13 09:45:54;;;;;;;22.13;15.80;;;9.80;99.90;;;;;;5013054;28;20215;-31
2022/03/13 09:48:21;;;;;;;23.37;15.30;;;10.00;99.90;;;;;;4994850;28;20225;-32
2022/03/13 09:50:47;;;;;;;23.00;16.03;;;10.20;99.90;;;;;;5010193;28;20184;-32
2022/03/13 09:53:13;;;;;;;21.03;15.60;;;10.30;99.90;;;;;;5010532;28;20196;-31
2022/03/13 09:55:39;;;;;;;22.83;15.90;;;10.40;99.70;;;;;;4991183;28;20180;-31
2022/03/13 09:58:08;;;;;;;20.90;15.20;;;10.50;99.60;;;;;;4991101;28;20190;-32
2022/03/13 10:00:36;;;;;;;21.23;15.30;;;10.70;99.60;;;;;;4990515;28;20188;-33
2022/03/13 10:03:05;;;;;;;23.13;16.27;;;10.80;99.70;;;;;;4973833;28;20204;-32
2022/03/13 10:05:44;;;;;;;22.90;16.10;;;10.80;99.10;;;;;;4999199;28;20210;-30
2022/03/13 10:08:11;;;;;;;21.80;15.50;;;11.00;99.00;;;;;;5011623;28;20167;-32
2022/03/13 10:10:45;;;;;;;21.37;15.33;;;11.10;99.30;;;;;;4993667;28;20191;-31
2022/03/13 10:13:16;;;;;;;21.70;15.27;;;11.20;99.30;;;;;;4993716;28;20210;-32
2022/03/13 10:15:47;;;;;;;20.13;14.57;;;11.30;98.70;;;;;;5007585;28;20183;-32
2022/03/13 10:18:18;;;;;;;19.30;14.30;;;11.60;99.40;;;;;;4974556;28;20189;-32
2022/03/13 10:20:48;;;;;;;20.03;13.63;;;11.70;97.80;;;;;;4974085;28;20284;-32
2022/03/13 10:23:19;;;;;;;19.23;13.60;;;11.80;96.60;;;;;;4974261;28;20217;-32
2022/03/13 10:25:50;;;;;;;21.20;14.10;;;11.80;96.40;;;;;;4989918;28;20254;-32
2022/03/13 10:28:31;;;;;;;20.90;14.13;;;11.90;95.80;;;;;;4991424;28;20216;-31
2022/03/13 10:31:00;;;;;;;20.37;13.63;;;12.00;95.70;;;;;;4973952;28;20207;-32
2022/03/13 10:33:27;;;;;;;18.13;13.30;;;12.20;96.20;;;;;;5003813;28;20177;-31
2022/03/13 10:36:11;;;;;;;19.83;13.47;;;12.40;96.00;;;;;;4997108;28;20187;-32
2022/03/13 10:38:39;;;;;;;21.33;13.20;;;12.50;95.40;;;;;;4996313;28;20177;-32
2022/03/13 10:41:08;;;;;;;19.33;13.87;;;12.70;95.10;;;;;;4997774;28;20199;-32
2022/03/13 10:43:50;;;;;;;18.03;13.07;;;12.90;95.10;;;;;;4990162;28;20198;-31
2022/03/13 10:46:27;;;;;;;19.30;13.53;;;13.00;94.40;;;;;;4990076;28;20215;-32
2022/03/13 10:48:54;;;;;;;19.53;13.83;;;13.10;94.10;;;;;;4989711;28;20188;-31
2022/03/13 10:51:40;;;;;;;20.60;14.40;;;13.00;93.60;;;;;;4991543;28;20299;-31
2022/03/13 10:54:07;;;;;;;19.10;14.63;;;12.90;94.20;;;;;;4973931;28;20202;-32
2022/03/13 10:56:34;;;;;;;21.13;15.00;;;13.10;94.20;;;;;;4973768;28;20198;-32
2022/03/13 10:59:19;;;;;;;21.67;14.20;;;13.00;94.10;;;;;;4991154;28;20179;-32
2022/03/13 11:02:11;;;;;;;25.23;15.27;;;13.20;95.90;;;;;;4990062;28;20207;-32
2022/03/13 11:04:55;;;;;;;21.80;14.77;;;13.40;95.30;;;;;;4997484;28;20203;-32
2022/03/13 11:07:27;;;;;;;23.80;15.10;;;13.60;93.70;;;;;;4999648;28;20656;-32
2022/03/13 11:09:56;;;;;;;20.20;14.50;;;13.80;94.00;;;;;;4995273;28;20182;-32
2022/03/13 11:12:24;;;;;;;21.27;14.60;;;14.00;94.10;;;;;;4996068;28;20727;-31
2022/03/13 11:14:55;;;;;;;23.60;14.80;;;14.20;93.30;;;;;;5001700;28;20182;-31
2022/03/13 11:17:43;;;;;;;22.77;15.30;;;14.40;93.30;;;;;;4987569;28;20180;-30
2022/03/13 11:20:13;;;;;;;23.63;16.67;;;14.60;93.00;;;;;;5003158;28;20239;-31
2022/03/13 11:22:39;;;;;;;21.67;15.17;;;14.80;92.90;;;;;;5005111;28;20213;-31
2022/03/13 11:25:09;;;;;;;21.37;15.80;;;14.90;91.90;;;;;;4988059;28;20680;-32
2022/03/13 11:27:38;;;;;;;26.77;17.63;;;15.00;91.40;;;;;;4967111;28;20183;-30
2022/03/13 11:30:07;;;;;;;25.17;17.10;;;15.20;91.60;;;;;;5005398;28;20179;-30
2022/03/13 11:32:46;;;;;;;23.90;16.97;;;15.40;91.20;;;;;;4993001;28;20195;-31
2022/03/13 11:35:18;;;;;;;22.67;16.13;;;15.40;90.40;;;;;;4993105;28;20199;-31
2022/03/13 11:37:51;;;;;;;25.70;17.13;;;15.60;91.70;;;;;;5010834;28;20168;-31
2022/03/13 11:40:37;;;;;;;26.07;17.10;;;15.50;89.50;;;;;;4984962;28;20237;-31
2022/03/13 11:43:13;;;;;;;24.53;17.97;;;15.70;90.60;;;;;;5006584;28;20241;-31
2022/03/13 11:45:42;;;;;;;21.50;15.83;;;15.90;90.00;;;;;;5008443;28;20221;-30
2022/03/13 11:48:19;;;;;;;22.77;16.30;;;15.90;89.00;;;;;;4991265;28;20260;-31
2022/03/13 11:50:54;;;;;;;24.80;17.77;;;16.00;89.20;;;;;;4995758;28;20175;-31
2022/03/13 11:53:22;;;;;;;24.60;16.00;;;16.20;88.40;;;;;;4980537;28;20179;-31
2022/03/13 11:56:02;;;;;;;22.23;16.87;;;16.30;88.20;;;;;;4978376;28;20193;-31
2022/03/13 11:58:49;;;;;;;22.60;16.57;;;16.30;87.70;;;;;;4985438;28;20175;-32
2022/03/13 12:01:23;;;;;;;23.17;16.10;;;16.50;87.70;;;;;;4989620;28;20282;-30
2022/03/13 12:04:01;;;;;;;23.83;16.40;;;16.60;87.30;;;;;;4984986;28;20209;-31
2022/03/13 12:06:46;;;;;;;24.08;16.83;;;16.70;86.50;;;;;;4999873;28;20187;-32
2022/03/13 12:09:25;;;;;;;24.60;16.00;;;16.80;85.30;;;;;;4999624;28;20204;-31
2022/03/13 12:12:01;;;;;;;24.30;16.77;;;17.00;84.80;;;;;;4999389;28;20226;-32
2022/03/13 12:15:01;;;;;;;23.38;16.40;;;17.10;84.70;;;;;;4995510;28;20210;-33
2022/03/13 12:17:42;;;;;;;23.23;16.33;;;17.20;83.70;;;;;;4976789;28;20184;-31
2022/03/13 12:20:08;;;;;;;24.45;16.25;;;17.30;83.70;;;;;;4992849;28;20296;-31
2022/03/13 12:22:35;;;;;;;22.88;16.05;;;17.40;84.10;;;;;;4992282;28;20274;-31
2022/03/13 12:25:02;;;;;;;20.70;15.63;;;17.40;83.70;;;;;;4974187;28;20211;-32
2022/03/13 12:27:29;;;;;;;22.38;15.35;;;17.60;83.00;;;;;;4991542;28;20268;-32
2022/03/13 12:29:57;;;;;;;21.27;15.80;;;17.70;83.90;;;;;;4975282;28;20799;-31
2022/03/13 12:32:33;;;;;;;22.88;17.20;;;17.90;83.30;;;;;;4975750;28;20207;-31
2022/03/13 12:35:01;;;;;;;21.20;15.45;;;18.00;81.60;;;;;;4993857;28;20652;-31
2022/03/13 12:37:27;;;;;;;21.65;15.90;;;18.10;81.80;;;;;;4992443;28;20180;-31
2022/03/13 12:40:00;;;;;;;23.17;16.10;;;18.20;81.10;;;;;;4978721;28;20263;-32